createdAt,value
2022-10-26T00:00:26.516Z,3.80
2022-10-26T00:02:56.834Z,4.23
2022-10-26T00:05:23.947Z,3.93
2022-10-26T00:07:51.042Z,4.07
2022-10-26T00:10:17.521Z,5.90
2022-10-26T00:12:43.969Z,2.90
2022-10-26T00:15:10.644Z,3.73
2022-10-26T00:17:37.143Z,6.10
2022-10-26T00:20:04.005Z,3.63
2022-10-26T00:22:30.446Z,5.53
2022-10-26T00:24:56.954Z,4.40
2022-10-26T00:27:23.656Z,2.97
2022-10-26T00:29:50.108Z,3.60
2022-10-26T00:32:16.639Z,3.67
2022-10-26T00:34:43.110Z,5.10
2022-10-26T00:37:09.764Z,4.63
2022-10-26T00:39:36.586Z,4.70
2022-10-26T00:42:03.321Z,3.77
2022-10-26T00:44:48.323Z,7.30
2022-10-26T00:47:17.681Z,3.07
2022-10-26T00:49:47.450Z,4.03
2022-10-26T00:52:15.555Z,4.37
2022-10-26T00:54:42.117Z,2.90
2022-10-26T00:57:08.628Z,6.03
2022-10-26T00:59:35.213Z,3.73
2022-10-26T01:02:01.804Z,3.07
2022-10-26T01:04:28.697Z,3.70
2022-10-26T01:06:55.641Z,3.30
2022-10-26T01:09:22.657Z,3.33
2022-10-26T01:11:49.403Z,2.87
2022-10-26T01:14:18.207Z,2.90
2022-10-26T01:20:04.655Z,6.40
2022-10-26T01:22:37.372Z,3.03
2022-10-26T01:25:15.991Z,4.73
2022-10-26T01:27:47.811Z,5.20
2022-10-26T01:30:26.837Z,3.37
2022-10-26T01:33:18.830Z,2.80
2022-10-26T01:36:04.082Z,4.03
2022-10-26T01:38:52.705Z,4.63
2022-10-26T01:41:28.296Z,4.27
2022-10-26T01:44:19.088Z,3.37
2022-10-26T01:46:47.072Z,4.73
2022-10-26T01:49:15.688Z,2.47
2022-10-26T01:51:44.305Z,4.40
2022-10-26T01:54:11.174Z,4.77
2022-10-26T01:56:41.291Z,3.17
2022-10-26T01:59:18.030Z,5.40
2022-10-26T02:01:59.801Z,8.90
2022-10-26T02:05:04.678Z,4.13
2022-10-26T02:07:34.122Z,3.00
2022-10-26T02:10:12.589Z,4.47
2022-10-26T02:12:47.457Z,4.37
2022-10-26T02:15:32.476Z,4.97
2022-10-26T02:18:17.387Z,5.87
2022-10-26T02:20:48.289Z,8.37
2022-10-26T02:23:14.973Z,4.10
2022-10-26T02:25:48.072Z,4.23
2022-10-26T02:28:18.546Z,4.53
2022-10-26T02:30:46.566Z,5.93
2022-10-26T02:33:14.087Z,6.67
2022-10-26T02:35:41.945Z,4.97
2022-10-26T02:38:10.064Z,6.77
2022-10-26T02:40:37.636Z,4.17
2022-10-26T02:43:07.870Z,6.77
2022-10-26T02:45:41.328Z,6.33
2022-10-26T02:48:07.822Z,4.83
2022-10-26T02:50:43.267Z,6.10
2022-10-26T02:53:24.481Z,3.97
2022-10-26T02:55:51.403Z,6.87
2022-10-26T02:58:26.647Z,5.37
2022-10-26T03:00:53.480Z,4.40
2022-10-26T03:03:20.282Z,5.63
2022-10-26T03:05:46.735Z,5.63
2022-10-26T03:08:13.397Z,6.73
2022-10-26T03:10:44.826Z,3.77
2022-10-26T03:13:12.712Z,3.67
2022-10-26T03:15:39.327Z,3.47
2022-10-26T03:18:06.155Z,4.17
2022-10-26T03:20:32.641Z,6.47
2022-10-26T03:22:59.193Z,5.63
2022-10-26T03:25:26.090Z,4.83
2022-10-26T03:28:03.636Z,4.97
2022-10-26T03:30:30.850Z,5.53
2022-10-26T03:32:57.631Z,4.43
2022-10-26T03:35:27.619Z,4.40
2022-10-26T03:37:54.794Z,6.57
2022-10-26T03:40:21.291Z,6.40
2022-10-26T03:42:48.079Z,3.87
2022-10-26T03:45:15.038Z,4.33
2022-10-26T03:47:48.891Z,5.23
2022-10-26T03:50:18.099Z,4.43
2022-10-26T03:52:44.728Z,5.77
2022-10-26T03:55:11.176Z,6.33
2022-10-26T03:57:44.854Z,6.17
2022-10-26T04:00:15.344Z,8.43
2022-10-26T04:02:43.564Z,3.30
2022-10-26T04:05:10.159Z,3.87
2022-10-26T04:07:36.635Z,4.53
2022-10-26T04:10:04.439Z,5.43
2022-10-26T04:12:31.307Z,3.60
2022-10-26T04:14:58.348Z,6.97
2022-10-26T04:17:25.174Z,7.07
2022-10-26T04:19:51.740Z,4.27
2022-10-26T04:22:18.234Z,9.17
2022-10-26T04:24:44.738Z,5.70
2022-10-26T04:27:11.192Z,4.87
2022-10-26T04:29:37.649Z,5.60
2022-10-26T04:32:04.549Z,5.17
2022-10-26T04:34:31.020Z,4.40
2022-10-26T04:36:57.606Z,4.30
2022-10-26T04:39:24.287Z,3.80
2022-10-26T04:41:50.771Z,4.97
2022-10-26T04:44:17.290Z,4.43
2022-10-26T04:46:43.704Z,4.23
2022-10-26T04:49:10.532Z,5.90
2022-10-26T04:51:37.657Z,3.83
2022-10-26T04:54:04.439Z,8.57
2022-10-26T04:56:30.886Z,5.47
2022-10-26T04:58:57.377Z,6.10
2022-10-26T05:01:23.961Z,4.93
2022-10-26T05:03:52.254Z,3.50
2022-10-26T05:06:20.049Z,5.27
2022-10-26T05:08:46.745Z,4.77
2022-10-26T05:11:13.619Z,4.40
2022-10-26T05:13:40.171Z,6.30
2022-10-26T05:16:07.285Z,5.73
2022-10-26T05:18:33.793Z,5.20
2022-10-26T05:21:00.355Z,4.73
2022-10-26T05:23:26.854Z,8.27
2022-10-26T05:25:55.273Z,4.47
2022-10-26T05:28:21.893Z,4.90
2022-10-26T05:30:48.473Z,5.03
2022-10-26T05:33:15.471Z,9.80
2022-10-26T05:35:42.550Z,5.10
2022-10-26T05:38:18.252Z,4.83
2022-10-26T05:40:48.913Z,4.97
2022-10-26T05:43:15.364Z,8.50
2022-10-26T05:45:41.859Z,5.53
2022-10-26T05:48:08.329Z,6.90
2022-10-26T05:50:35.077Z,5.77
2022-10-26T05:53:01.777Z,5.20
2022-10-26T05:55:28.691Z,9.17
2022-10-26T05:57:55.461Z,4.87
2022-10-26T06:00:24.825Z,5.87
2022-10-26T06:03:16.410Z,6.27
2022-10-26T06:05:57.344Z,4.57
2022-10-26T06:08:28.306Z,7.70
2022-10-26T06:10:56.650Z,5.17
2022-10-26T06:13:23.347Z,5.47
2022-10-26T06:16:06.595Z,5.57
2022-10-26T06:18:36.114Z,4.23
2022-10-26T06:21:14.776Z,6.60
2022-10-26T06:23:57.304Z,6.47
2022-10-26T06:26:31.903Z,8.27
2022-10-26T06:29:04.506Z,9.73
2022-10-26T06:31:30.980Z,7.43
2022-10-26T06:34:00.083Z,12.37
2022-10-26T06:36:28.239Z,7.20
2022-10-26T06:39:00.172Z,10.77
2022-10-26T06:41:26.876Z,7.47
2022-10-26T06:43:53.625Z,7.20
2022-10-26T06:46:23.030Z,7.37
2022-10-26T06:48:58.400Z,7.37
2022-10-26T06:51:25.726Z,7.37
2022-10-26T06:54:24.781Z,7.93
2022-10-26T06:56:52.384Z,8.07
2022-10-26T06:59:30.083Z,6.95
2022-10-26T07:01:56.928Z,6.72
2022-10-26T07:04:23.478Z,4.88
2022-10-26T07:06:49.998Z,4.55
2022-10-26T07:09:16.469Z,3.95
2022-10-26T07:11:42.923Z,3.65
2022-10-26T07:14:09.495Z,4.78
2022-10-26T07:16:35.976Z,6.38
2022-10-26T07:19:02.515Z,3.83
2022-10-26T07:21:28.969Z,3.85
2022-10-26T07:23:57.008Z,3.50
2022-10-26T07:26:25.595Z,5.55
2022-10-26T07:28:52.194Z,5.65
2022-10-26T07:31:18.802Z,7.55
2022-10-26T07:33:45.420Z,3.70
2022-10-26T07:36:12.562Z,4.22
2022-10-26T07:38:39.656Z,6.32
2022-10-26T07:41:09.184Z,5.00
2022-10-26T07:43:35.643Z,5.22
2022-10-26T07:46:02.173Z,8.15
2022-10-26T07:48:28.629Z,4.82
2022-10-26T07:50:55.385Z,3.60
2022-10-26T07:53:26.756Z,5.10
2022-10-26T07:55:55.525Z,3.20
2022-10-26T07:58:26.241Z,4.20
2022-10-26T08:00:53.582Z,4.45
2022-10-26T08:03:20.639Z,4.50
2022-10-26T08:05:51.106Z,3.97
2022-10-26T08:08:20.896Z,4.68
2022-10-26T08:10:47.832Z,4.57
2022-10-26T08:13:14.467Z,7.97
2022-10-26T08:15:41.197Z,3.78
2022-10-26T08:18:07.797Z,4.60
2022-10-26T08:20:34.379Z,3.67
2022-10-26T08:23:01.356Z,4.38
2022-10-26T08:25:28.001Z,4.45
2022-10-26T08:27:54.510Z,3.45
2022-10-26T08:30:21.130Z,3.58
2022-10-26T08:32:47.958Z,4.88
2022-10-26T08:35:14.862Z,3.97
2022-10-26T08:37:41.355Z,4.05
2022-10-26T08:40:11.409Z,3.13
2022-10-26T08:42:40.979Z,4.40
2022-10-26T08:45:18.431Z,3.78
2022-10-26T08:47:48.191Z,5.28
2022-10-26T08:50:21.168Z,5.05
2022-10-26T08:52:54.973Z,4.25
2022-10-26T08:55:25.653Z,4.18
2022-10-26T08:57:53.117Z,2.80
2022-10-26T09:00:23.758Z,4.05
2022-10-26T09:02:51.321Z,4.53
2022-10-26T09:05:23.957Z,3.08
2022-10-26T09:08:32.277Z,2.65
2022-10-26T09:11:08.690Z,4.78
2022-10-26T09:13:56.339Z,3.35
2022-10-26T09:16:25.367Z,5.15
2022-10-26T09:19:36.670Z,3.22
2022-10-26T09:22:27.309Z,3.38
2022-10-26T09:24:56.206Z,4.13
2022-10-26T09:27:30.591Z,4.13
2022-10-26T09:30:00.074Z,5.00
2022-10-26T09:32:32.352Z,3.45
2022-10-26T09:35:03.620Z,3.75
2022-10-26T09:37:34.274Z,2.80
2022-10-26T09:40:11.380Z,4.00
2022-10-26T09:42:49.339Z,3.08
2022-10-26T09:45:20.998Z,2.83
2022-10-26T09:47:53.615Z,3.95
2022-10-26T09:50:27.438Z,3.75
2022-10-26T09:52:53.943Z,2.65
2022-10-26T09:55:22.549Z,3.83
2022-10-26T09:57:52.345Z,4.20
2022-10-26T10:00:20.293Z,4.38
2022-10-26T10:02:55.052Z,3.38
2022-10-26T10:05:39.104Z,4.13
2022-10-26T10:08:20.187Z,3.38
2022-10-26T10:11:02.544Z,5.97
2022-10-26T10:13:34.203Z,4.18
2022-10-26T10:16:05.159Z,4.65
2022-10-26T10:18:32.606Z,4.15
2022-10-26T10:20:59.517Z,3.58
2022-10-26T10:23:31.541Z,3.35
2022-10-26T10:26:00.018Z,3.83
2022-10-26T10:28:27.439Z,3.47
2022-10-26T10:31:19.770Z,4.38
2022-10-26T10:33:46.773Z,5.32
2022-10-26T10:36:19.984Z,3.80
2022-10-26T10:38:48.954Z,4.30
2022-10-26T10:41:36.601Z,2.53
2022-10-26T10:44:22.935Z,4.50
2022-10-26T10:46:49.470Z,4.75
2022-10-26T10:49:21.589Z,3.70
2022-10-26T10:51:48.524Z,2.70
2022-10-26T10:54:25.336Z,3.38
2022-10-26T10:56:54.052Z,2.90
2022-10-26T10:59:45.593Z,1.90
2022-10-26T11:02:26.259Z,3.65
2022-10-26T11:05:23.320Z,2.97
2022-10-26T11:07:55.850Z,2.47
2022-10-26T11:10:23.864Z,2.42
2022-10-26T11:12:58.489Z,2.63
2022-10-26T11:15:28.385Z,8.45
2022-10-26T11:18:07.687Z,1.38
2022-10-26T11:20:38.661Z,2.78
2022-10-26T11:23:20.911Z,3.25
2022-10-26T11:25:54.384Z,2.38
2022-10-26T11:28:34.037Z,2.58
2022-10-26T11:31:05.266Z,2.72
2022-10-26T11:33:41.702Z,1.00
2022-10-26T11:36:22.026Z,2.17
2022-10-26T11:39:09.963Z,1.60
2022-10-26T11:41:51.375Z,1.90
2022-10-26T11:44:24.773Z,2.15
2022-10-26T11:47:03.729Z,1.65
2022-10-26T11:49:39.650Z,1.13
2022-10-26T11:52:17.993Z,2.40
2022-10-26T11:54:52.158Z,1.88
2022-10-26T11:57:18.766Z,1.20
2022-10-26T11:59:49.434Z,1.42
2022-10-26T12:02:19.889Z,1.92
2022-10-26T12:04:50.184Z,1.10
2022-10-26T12:07:23.595Z,3.15
2022-10-26T12:09:50.731Z,2.05
2022-10-26T12:12:39.106Z,3.97
2022-10-26T12:15:35.454Z,0.90
2022-10-26T12:18:54.581Z,8.95
2022-10-26T12:21:25.109Z,2.88
2022-10-26T12:23:58.671Z,1.85
2022-10-26T12:26:28.095Z,3.08
2022-10-26T12:29:03.801Z,1.48
2022-10-26T12:31:36.093Z,0.82
2022-10-26T12:34:11.641Z,1.02
2022-10-26T12:36:50.446Z,2.85
2022-10-26T12:39:40.555Z,1.80
2022-10-26T12:42:09.909Z,3.15
2022-10-26T12:44:48.555Z,1.00
2022-10-26T12:47:29.974Z,1.02
2022-10-26T12:50:05.784Z,0.95
2022-10-26T12:53:18.399Z,1.25
2022-10-26T12:55:54.767Z,1.30
2022-10-26T12:58:27.296Z,0.85
2022-10-26T13:00:59.803Z,0.95
2022-10-26T13:03:41.518Z,1.55
2022-10-26T13:06:20.675Z,0.88
2022-10-26T13:08:51.591Z,4.07
2022-10-26T13:11:29.451Z,0.95
2022-10-26T13:13:58.944Z,0.55
2022-10-26T13:16:27.230Z,0.50
2022-10-26T13:18:53.831Z,0.85
2022-10-26T13:21:21.390Z,1.30
2022-10-26T13:23:53.901Z,1.52
2022-10-26T13:26:24.467Z,0.40
2022-10-26T13:28:57.216Z,0.77
2022-10-26T13:31:32.777Z,0.68
2022-10-26T13:34:01.617Z,1.13
2022-10-26T13:36:33.623Z,0.93
2022-10-26T13:39:03.429Z,1.35
2022-10-26T13:41:34.829Z,1.42
2022-10-26T13:44:05.719Z,2.95
2022-10-26T13:46:36.103Z,1.02
2022-10-26T13:49:39.223Z,0.73
2022-10-26T13:52:06.747Z,1.50
2022-10-26T13:54:37.939Z,0.40
2022-10-26T13:57:19.441Z,1.27
2022-10-26T13:59:46.449Z,1.38
2022-10-26T14:02:30.499Z,0.90
2022-10-26T14:05:01.808Z,0.52
2022-10-26T14:07:35.849Z,0.52
2022-10-26T14:10:02.412Z,0.77
2022-10-26T14:12:29.063Z,3.42
2022-10-26T14:15:03.129Z,1.38
2022-10-26T14:17:29.629Z,0.50
2022-10-26T14:19:56.120Z,0.70
2022-10-26T14:22:24.283Z,1.05
2022-10-26T14:24:53.180Z,1.58
2022-10-26T14:27:22.570Z,1.02
2022-10-26T14:30:10.171Z,0.35
2022-10-26T14:32:37.697Z,2.38
2022-10-26T14:35:04.460Z,0.90
2022-10-26T14:37:43.526Z,1.35
2022-10-26T14:40:16.947Z,1.52
2022-10-26T14:42:46.187Z,0.60
2022-10-26T14:45:54.428Z,1.25
2022-10-26T14:48:31.129Z,1.90
2022-10-26T14:51:09.377Z,2.97
2022-10-26T14:53:38.507Z,2.97
2022-10-26T14:56:06.715Z,1.33
2022-10-26T14:58:33.870Z,1.60
2022-10-26T15:01:22.381Z,1.75
2022-10-26T15:04:06.292Z,3.58
2022-10-26T15:06:40.412Z,1.45
2022-10-26T15:09:31.016Z,1.65
2022-10-26T15:11:57.719Z,2.20
2022-10-26T15:14:24.180Z,1.60
2022-10-26T15:16:54.338Z,3.45
2022-10-26T15:19:23.956Z,2.47
2022-10-26T15:21:52.331Z,1.88
2022-10-26T15:24:38.819Z,3.10
2022-10-26T15:27:13.931Z,2.33
2022-10-26T15:29:51.700Z,3.15
2022-10-26T15:32:26.624Z,3.05
2022-10-26T15:35:11.484Z,3.25
2022-10-26T15:37:38.484Z,3.35
2022-10-26T15:40:05.448Z,2.80
2022-10-26T15:42:31.972Z,3.08
2022-10-26T15:44:59.454Z,3.53
2022-10-26T15:47:30.486Z,3.42
2022-10-26T15:49:56.937Z,3.20
2022-10-26T15:52:23.350Z,3.38
2022-10-26T15:54:49.814Z,4.22
2022-10-26T15:57:19.206Z,4.15
2022-10-26T15:59:47.945Z,2.65
2022-10-26T16:02:15.588Z,4.20
2022-10-26T16:04:42.505Z,3.97
2022-10-26T16:07:13.769Z,4.70
2022-10-26T16:09:41.124Z,3.85
2022-10-26T16:12:11.878Z,6.28
2022-10-26T16:14:53.260Z,6.95
2022-10-26T16:17:25.424Z,3.30
2022-10-26T16:19:51.846Z,5.07
2022-10-26T16:22:18.893Z,4.38
2022-10-26T16:24:45.344Z,4.07
2022-10-26T16:27:11.889Z,5.15
2022-10-26T16:29:38.637Z,5.20
2022-10-26T16:32:05.234Z,7.07
2022-10-26T16:34:31.645Z,4.82
2022-10-26T16:36:58.103Z,4.28
2022-10-26T16:39:24.594Z,4.05
2022-10-26T16:41:51.419Z,5.15
2022-10-26T16:44:17.932Z,4.65
2022-10-26T16:46:44.396Z,8.07
2022-10-26T16:49:11.104Z,4.78
2022-10-26T16:51:37.723Z,8.15
2022-10-26T16:54:04.715Z,4.63
2022-10-26T16:56:31.210Z,6.70
2022-10-26T16:58:57.793Z,4.55
2022-10-26T17:01:25.539Z,4.65
2022-10-26T17:03:52.805Z,6.78
2022-10-26T17:06:19.665Z,5.32
2022-10-26T17:08:46.643Z,8.10
2022-10-26T17:11:16.169Z,4.78
2022-10-26T17:13:43.515Z,5.78
2022-10-26T17:16:12.766Z,5.20
2022-10-26T17:18:40.815Z,7.20
2022-10-26T17:21:08.961Z,5.53
2022-10-26T17:23:35.577Z,5.93
2022-10-26T17:26:06.103Z,5.65
2022-10-26T17:28:32.730Z,6.95
2022-10-26T17:31:09.889Z,4.95
2022-10-26T17:33:38.022Z,5.30
2022-10-26T17:36:06.041Z,6.97
2022-10-26T17:38:34.511Z,7.25
2022-10-26T17:41:02.611Z,4.00
2022-10-26T17:43:33.660Z,6.13
2022-10-26T17:46:01.368Z,6.13
2022-10-26T17:48:29.066Z,5.07
2022-10-26T17:50:58.581Z,7.95
2022-10-26T17:53:25.230Z,6.88
2022-10-26T17:56:00.265Z,7.85
2022-10-26T17:58:26.724Z,5.25
2022-10-26T18:00:53.158Z,6.90
2022-10-26T18:03:19.622Z,7.05
2022-10-26T18:05:50.521Z,7.47
2022-10-26T18:08:17.598Z,6.40
2022-10-26T18:10:51.084Z,8.48
2022-10-26T18:13:17.601Z,5.45
2022-10-26T18:15:44.290Z,9.15
2022-10-26T18:18:10.766Z,6.88
2022-10-26T18:20:37.780Z,6.75
2022-10-26T18:23:04.603Z,6.50
2022-10-26T18:25:31.499Z,7.00
2022-10-26T18:27:58.072Z,8.15
2022-10-26T18:30:25.037Z,6.72
2022-10-26T18:32:52.455Z,7.18
2022-10-26T18:35:19.821Z,8.75
2022-10-26T18:37:46.428Z,7.40
2022-10-26T18:40:13.216Z,8.80
2022-10-26T18:42:39.704Z,8.52
2022-10-26T18:45:06.636Z,6.43
2022-10-26T18:47:33.372Z,9.18
2022-10-26T18:49:59.832Z,6.22
2022-10-26T18:52:27.921Z,6.15
2022-10-26T18:54:54.758Z,6.82
2022-10-26T18:57:26.826Z,7.50
2022-10-26T18:59:54.900Z,8.13
2022-10-26T19:02:23.033Z,6.50
2022-10-26T19:04:53.023Z,7.82
2022-10-26T19:07:19.737Z,7.63
2022-10-26T19:09:46.185Z,7.15
2022-10-26T19:12:13.040Z,7.03
2022-10-26T19:14:39.562Z,6.93
2022-10-26T19:17:06.166Z,6.38
2022-10-26T19:19:32.652Z,7.30
2022-10-26T19:22:00.298Z,6.20
2022-10-26T19:24:26.852Z,6.85
2022-10-26T19:26:54.116Z,8.73
2022-10-26T19:29:21.087Z,6.20
2022-10-26T19:31:50.200Z,8.93
2022-10-26T19:34:17.314Z,6.65
2022-10-26T19:36:46.144Z,6.95
2022-10-26T19:39:14.664Z,6.78
2022-10-26T19:41:41.338Z,7.63
2022-10-26T19:44:09.898Z,7.75
2022-10-26T19:46:36.779Z,7.72
2022-10-26T19:49:03.405Z,7.78
2022-10-26T19:51:31.210Z,10.52
2022-10-26T19:54:03.879Z,8.52
2022-10-26T19:56:31.844Z,7.80
2022-10-26T19:58:58.484Z,8.27
2022-10-26T20:01:25.039Z,8.73
2022-10-26T20:03:51.878Z,7.60
2022-10-26T20:06:18.509Z,8.05
2022-10-26T20:08:47.389Z,6.68
2022-10-26T20:11:16.190Z,7.82
2022-10-26T20:13:44.218Z,6.95
2022-10-26T20:16:11.883Z,7.95
2022-10-26T20:18:41.319Z,11.77
2022-10-26T20:21:11.566Z,9.55
2022-10-26T20:23:38.195Z,6.82
2022-10-26T20:28:36.234Z,13.07
2022-10-26T20:31:02.758Z,8.00
2022-10-26T20:33:29.189Z,13.93
2022-10-26T20:35:59.128Z,9.45
2022-10-26T20:38:26.293Z,7.88
2022-10-26T20:40:57.713Z,9.10
2022-10-26T20:43:25.744Z,9.68
2022-10-26T20:45:52.685Z,10.07
2022-10-26T20:48:19.554Z,10.00
2022-10-26T20:50:59.577Z,9.65
2022-10-26T20:53:28.705Z,8.85
2022-10-26T20:55:59.403Z,9.13
2022-10-26T20:58:32.767Z,11.02
2022-10-26T21:01:01.082Z,10.98
2022-10-26T21:03:27.753Z,8.50
2022-10-26T21:05:54.191Z,10.57
2022-10-26T21:08:20.698Z,8.95
2022-10-26T21:10:47.130Z,11.43
2022-10-26T21:13:13.669Z,10.15
2022-10-26T21:15:40.202Z,10.00
2022-10-26T21:18:06.869Z,10.52
2022-10-26T21:20:33.377Z,10.85
2022-10-26T21:22:59.899Z,10.83
2022-10-26T21:25:26.380Z,8.38
2022-10-26T21:27:56.839Z,8.93
2022-10-26T21:30:26.720Z,11.27
2022-10-26T21:32:53.401Z,8.80
2022-10-26T21:35:20.551Z,9.70
2022-10-26T21:37:47.627Z,7.53
2022-10-26T21:40:14.981Z,9.93
2022-10-26T21:42:41.588Z,8.00
2022-10-26T21:45:08.598Z,9.97
2022-10-26T21:47:35.091Z,7.72
2022-10-26T21:50:01.633Z,9.83
2022-10-26T21:52:28.713Z,6.82
2022-10-26T21:54:55.189Z,8.43
2022-10-26T21:57:21.616Z,8.57
2022-10-26T21:59:48.078Z,8.13
2022-10-26T22:02:14.634Z,8.47
2022-10-26T22:04:41.133Z,11.02
2022-10-26T22:07:07.624Z,8.83
2022-10-26T22:09:40.678Z,9.50
2022-10-26T22:12:16.180Z,8.63
2022-10-26T22:14:42.666Z,8.32
2022-10-26T22:17:09.244Z,12.30
2022-10-26T22:19:35.670Z,13.07
2022-10-26T22:22:02.103Z,10.43
2022-10-26T22:24:28.794Z,10.15
2022-10-26T22:26:55.296Z,12.20
2022-10-26T22:29:21.795Z,9.40
2022-10-26T22:31:48.295Z,18.33
2022-10-26T22:34:16.350Z,8.73
2022-10-26T22:36:43.147Z,10.13
2022-10-26T22:39:09.632Z,11.67
2022-10-26T22:41:36.078Z,9.90
2022-10-26T22:44:02.673Z,7.27
2022-10-26T22:46:29.363Z,6.53
2022-10-26T22:49:01.618Z,11.10
2022-10-26T22:51:33.124Z,7.43
2022-10-26T22:54:01.695Z,8.60
2022-10-26T22:56:29.571Z,7.70
2022-10-26T22:58:56.314Z,7.47
2022-10-26T23:01:26.241Z,8.50
2022-10-26T23:03:56.233Z,5.67
2022-10-26T23:06:24.564Z,7.37
2022-10-26T23:08:51.352Z,7.80
2022-10-26T23:11:20.911Z,7.03
2022-10-26T23:13:47.787Z,5.90
2022-10-26T23:16:18.103Z,9.80
2022-10-26T23:18:45.393Z,6.83
2022-10-26T23:21:13.689Z,9.33
2022-10-26T23:23:40.835Z,6.60
2022-10-26T23:26:13.572Z,9.77
2022-10-26T23:28:40.991Z,6.23
2022-10-26T23:31:08.119Z,6.33
2022-10-26T23:33:35.096Z,10.57
2022-10-26T23:36:01.645Z,6.40
2022-10-26T23:38:28.972Z,4.97
2022-10-26T23:40:58.009Z,7.90
2022-10-26T23:43:27.598Z,5.10
2022-10-26T23:45:57.298Z,5.23
2022-10-26T23:48:23.859Z,8.95
2022-10-26T23:50:51.348Z,5.80
2022-10-26T23:53:20.411Z,5.40
2022-10-26T23:55:47.695Z,6.83
2022-10-26T23:58:15.313Z,4.17
